createdAt,value
2023-05-01T00:03:47.408Z,2.85
2023-05-01T00:08:49.473Z,1.95
2023-05-01T00:13:51.736Z,2.53
2023-05-01T00:18:55.186Z,1.92
2023-05-01T00:23:57.365Z,1.40
2023-05-01T00:28:59.380Z,3.05
2023-05-01T00:34:02.766Z,1.60
2023-05-01T00:39:07.585Z,2.17
2023-05-01T00:44:09.552Z,1.98
2023-05-01T00:49:13.456Z,1.75
2023-05-01T00:54:15.606Z,1.60
2023-05-01T00:59:17.858Z,1.42
2023-05-01T01:04:21.316Z,2.67
2023-05-01T01:09:31.722Z,0.93
2023-05-01T01:14:40.123Z,1.33
2023-05-01T01:20:15.940Z,1.70
2023-05-01T01:25:50.875Z,2.05
2023-05-01T01:31:08.969Z,2.03
2023-05-01T01:36:21.300Z,1.55
2023-05-01T01:41:30.248Z,1.58
2023-05-01T01:46:37.536Z,2.22
2023-05-01T01:51:42.367Z,1.70
2023-05-01T01:56:46.131Z,1.27
2023-05-01T02:01:50.989Z,1.23
2023-05-01T02:06:56.449Z,0.93
2023-05-01T02:12:00.232Z,2.17
2023-05-01T02:17:02.902Z,3.33
2023-05-01T02:22:07.720Z,3.10
2023-05-01T02:27:13.719Z,3.40
2023-05-01T02:32:15.717Z,6.00
2023-05-01T02:37:19.073Z,7.20
2023-05-01T02:42:23.892Z,4.43
2023-05-01T02:47:28.910Z,4.90
2023-05-01T02:52:32.597Z,7.43
2023-05-01T02:57:34.677Z,6.68
2023-05-01T03:02:36.760Z,4.70
2023-05-01T03:07:40.036Z,5.35
2023-05-01T03:12:42.319Z,4.38
2023-05-01T03:17:44.267Z,4.93
2023-05-01T03:22:47.552Z,4.40
2023-05-01T03:27:50.021Z,3.83
2023-05-01T03:32:52.053Z,4.68
2023-05-01T03:37:55.562Z,5.97
2023-05-01T03:42:57.600Z,5.00
2023-05-01T03:47:59.785Z,5.05
2023-05-01T03:53:03.087Z,3.88
2023-05-01T03:58:05.046Z,2.22
2023-05-01T04:03:07.255Z,3.00
2023-05-01T04:08:11.255Z,1.88
2023-05-01T04:13:13.391Z,1.75
2023-05-01T04:18:15.353Z,3.13
2023-05-01T04:23:18.762Z,2.45
2023-05-01T04:28:21.042Z,2.88
2023-05-01T04:33:23.543Z,2.47
2023-05-01T04:38:26.988Z,2.67
2023-05-01T04:43:28.895Z,2.38
2023-05-01T04:48:31.034Z,2.10
2023-05-01T04:53:34.328Z,1.80
2023-05-01T04:58:36.335Z,1.80
2023-05-01T05:03:38.393Z,1.55
2023-05-01T05:08:42.344Z,1.80
2023-05-01T05:13:44.434Z,2.05
2023-05-01T05:18:46.411Z,1.58
2023-05-01T05:23:49.768Z,2.15
2023-05-01T05:28:51.840Z,2.17
2023-05-01T05:33:53.955Z,2.05
2023-05-01T05:38:57.326Z,1.27
2023-05-01T05:43:59.662Z,2.15
2023-05-01T05:49:01.642Z,1.98
2023-05-01T05:54:05.014Z,2.25
2023-05-01T05:59:07.017Z,2.97
2023-05-01T06:04:09.876Z,2.63
2023-05-01T06:09:15.921Z,2.65
2023-05-01T06:14:19.015Z,2.83
2023-05-01T06:19:21.041Z,1.92
2023-05-01T06:24:24.641Z,1.10
2023-05-01T06:29:26.625Z,2.22
2023-05-01T06:34:28.614Z,2.15
2023-05-01T06:39:32.008Z,2.10
2023-05-01T06:44:33.981Z,2.50
2023-05-01T06:49:36.010Z,3.28
2023-05-01T06:54:39.420Z,2.40
2023-05-01T06:59:41.468Z,1.60
2023-05-01T07:04:44.450Z,1.70
2023-05-01T07:14:49.599Z,1.17
2023-05-01T07:19:51.792Z,2.45
2023-05-01T07:24:55.062Z,2.80
2023-05-01T07:29:58.053Z,1.13
2023-05-01T07:35:00.365Z,1.30
2023-05-01T07:40:04.257Z,2.15
2023-05-01T07:45:07.587Z,2.65
2023-05-01T07:50:10.462Z,2.22
2023-05-01T07:55:13.844Z,2.15
2023-05-01T08:00:17.490Z,1.50
2023-05-01T08:05:19.691Z,1.60
2023-05-01T08:10:23.083Z,2.17
2023-05-01T08:15:25.105Z,2.28
2023-05-01T08:20:27.250Z,2.60
2023-05-01T08:25:31.603Z,1.60
2023-05-01T08:30:33.637Z,3.80
2023-05-01T08:35:35.654Z,3.85
2023-05-01T08:40:40.938Z,2.10
2023-05-01T08:45:43.312Z,2.42
2023-05-01T08:50:47.465Z,2.72
2023-05-01T08:55:52.216Z,1.80
2023-05-01T09:00:57.495Z,2.22
2023-05-01T09:06:02.589Z,2.15
2023-05-01T09:11:06.441Z,2.10
2023-05-01T09:16:08.586Z,2.45
2023-05-01T09:21:12.008Z,2.28
2023-05-01T09:26:15.824Z,2.08
2023-05-01T09:31:22.901Z,2.20
2023-05-01T09:36:27.936Z,2.65
2023-05-01T09:41:33.024Z,1.67
2023-05-01T09:46:42.565Z,2.10
2023-05-01T09:51:44.702Z,2.40
2023-05-01T09:56:49.009Z,2.65
2023-05-01T10:01:51.406Z,2.10
2023-05-01T10:11:57.720Z,2.25
2023-05-01T10:17:00.064Z,2.88
2023-05-01T10:22:02.389Z,2.17
2023-05-01T10:27:07.820Z,2.50
2023-05-01T10:32:10.387Z,2.85
2023-05-01T10:37:17.237Z,2.58
2023-05-01T10:42:20.615Z,2.22
2023-05-01T10:47:44.714Z,2.38
2023-05-01T10:53:18.361Z,2.00
2023-05-01T10:58:56.489Z,2.13
2023-05-01T11:03:59.862Z,2.28
2023-05-01T11:09:02.775Z,2.03
2023-05-01T11:14:07.505Z,2.03
2023-05-01T11:19:11.108Z,2.47
2023-05-01T11:24:13.100Z,2.13
2023-05-01T11:29:17.124Z,2.30
2023-05-01T11:34:19.343Z,1.77
2023-05-01T11:39:22.151Z,1.92
2023-05-01T11:44:25.516Z,1.88
2023-05-01T11:49:30.757Z,2.03
2023-05-01T11:54:47.404Z,2.80
2023-05-01T11:59:50.784Z,2.33
2023-05-01T12:04:53.973Z,2.15
2023-05-01T12:09:56.139Z,2.30
2023-05-01T12:15:00.912Z,2.28
2023-05-01T12:20:04.355Z,2.58
2023-05-01T12:25:07.694Z,2.10
2023-05-01T12:30:12.059Z,1.35
2023-05-01T12:35:15.490Z,2.38
2023-05-01T12:40:17.570Z,2.92
2023-05-01T12:45:21.010Z,2.30
2023-05-01T12:50:23.093Z,2.72
2023-05-01T12:55:25.148Z,2.38
2023-05-01T13:00:28.454Z,2.15
2023-05-01T13:05:30.952Z,1.83
2023-05-01T13:10:32.975Z,3.30
2023-05-01T13:15:37.458Z,2.58
2023-05-01T13:20:39.514Z,2.42
2023-05-01T13:25:41.604Z,2.13
2023-05-01T13:30:45.382Z,2.08
2023-05-01T13:35:47.352Z,2.00
2023-05-01T13:40:49.614Z,2.58
2023-05-01T13:45:57.829Z,2.75
2023-05-01T13:50:59.788Z,2.28
2023-05-01T13:56:04.228Z,2.40
2023-05-01T14:01:15.031Z,2.20
2023-05-01T14:06:18.992Z,2.40
2023-05-01T14:11:21.073Z,2.28
2023-05-01T14:16:25.962Z,1.33
2023-05-01T14:21:28.304Z,1.90
2023-05-01T14:26:30.555Z,2.00
2023-05-01T14:31:33.907Z,2.47
2023-05-01T14:36:35.962Z,2.38
2023-05-01T14:41:42.310Z,2.15
2023-05-01T14:46:49.581Z,2.72
2023-05-01T14:51:53.263Z,2.50
2023-05-01T14:56:55.267Z,2.13
2023-05-01T15:01:58.639Z,1.90
2023-05-01T15:07:00.634Z,2.20
2023-05-01T15:12:04.527Z,2.38
2023-05-01T15:17:08.886Z,2.45
2023-05-01T15:22:10.836Z,1.95
2023-05-01T15:27:13.076Z,2.72
2023-05-01T15:32:16.475Z,2.72
2023-05-01T15:37:18.478Z,3.67
2023-05-01T15:42:20.742Z,1.50
2023-05-01T15:47:24.178Z,2.80
2023-05-01T15:52:27.090Z,2.97
2023-05-01T15:57:29.467Z,2.63
2023-05-01T16:02:33.204Z,3.20
2023-05-01T16:07:35.368Z,2.75
2023-05-01T16:17:43.674Z,3.20
2023-05-01T16:22:45.860Z,3.13
2023-05-01T16:27:47.921Z,3.10
2023-05-01T16:32:51.330Z,3.45
2023-05-01T16:37:53.704Z,3.55
2023-05-01T16:42:56.173Z,3.42
2023-05-01T16:47:59.692Z,3.72
2023-05-01T16:53:01.714Z,3.15
2023-05-01T16:58:03.700Z,3.05
2023-05-01T17:03:07.166Z,2.78
2023-05-01T17:08:10.550Z,3.08
2023-05-01T17:13:14.544Z,3.28
2023-05-01T17:18:18.092Z,3.83
2023-05-01T17:23:22.283Z,3.97
2023-05-01T17:28:24.508Z,4.45
2023-05-01T17:33:30.994Z,4.50
2023-05-01T17:38:33.032Z,3.78
2023-05-01T17:43:35.042Z,5.20
2023-05-01T17:48:38.366Z,5.10
2023-05-01T17:53:40.799Z,4.57
2023-05-01T18:03:46.216Z,6.32
2023-05-01T18:08:50.004Z,6.32
2023-05-01T18:13:52.207Z,6.50
2023-05-01T18:18:58.028Z,5.22
2023-05-01T18:24:02.306Z,4.38
2023-05-01T18:29:04.313Z,4.38
2023-05-01T18:34:10.078Z,3.67
2023-05-01T18:39:12.302Z,4.10
2023-05-01T18:44:14.484Z,3.90
2023-05-01T18:49:23.325Z,3.63
2023-05-01T18:54:25.474Z,4.32
2023-05-01T18:59:30.901Z,6.97
2023-05-01T19:04:49.156Z,5.50
2023-05-01T19:09:58.753Z,4.22
2023-05-01T19:15:01.164Z,4.25
2023-05-01T19:20:05.747Z,4.95
2023-05-01T19:25:08.530Z,5.47
2023-05-01T19:30:11.051Z,6.90
2023-05-01T19:35:14.600Z,6.97
2023-05-01T19:40:16.820Z,5.32
2023-05-01T19:45:18.877Z,6.55
2023-05-01T19:50:22.713Z,4.82
2023-05-01T19:55:24.899Z,5.40
2023-05-01T20:00:27.969Z,4.75
2023-05-01T20:05:32.482Z,6.97
2023-05-01T20:10:34.480Z,4.10
2023-05-01T20:15:36.982Z,4.63
2023-05-01T20:20:40.329Z,9.35
2023-05-01T20:25:42.598Z,7.65
2023-05-01T20:30:46.212Z,4.28
2023-05-01T20:35:49.640Z,3.78
2023-05-01T20:40:51.687Z,3.33
2023-05-01T20:45:53.670Z,4.40
2023-05-01T20:50:57.184Z,3.47
2023-05-01T20:55:59.157Z,2.67
2023-05-01T21:01:01.735Z,5.20
2023-05-01T21:06:05.709Z,2.90
2023-05-01T21:11:07.740Z,3.08
2023-05-01T21:16:13.910Z,2.65
2023-05-01T21:21:17.503Z,2.95
2023-05-01T21:26:19.715Z,3.30
2023-05-01T21:31:22.159Z,2.72
2023-05-01T21:36:25.511Z,3.70
2023-05-01T21:41:27.460Z,2.72
2023-05-01T21:46:29.525Z,3.13
2023-05-01T21:51:33.451Z,3.10
2023-05-01T21:56:35.585Z,2.58
2023-05-01T22:01:39.164Z,2.33
2023-05-01T22:06:42.499Z,2.88
2023-05-01T22:11:44.550Z,4.55
2023-05-01T22:16:46.782Z,4.07
2023-05-01T22:21:50.245Z,2.80
2023-05-01T22:26:52.340Z,3.08
2023-05-01T22:31:54.296Z,3.90
2023-05-01T22:36:57.580Z,4.38
2023-05-01T22:41:59.818Z,3.05
2023-05-01T22:47:01.752Z,2.60
2023-05-01T22:52:05.498Z,2.25
2023-05-01T22:57:07.675Z,1.85
2023-05-01T23:02:10.075Z,1.48
2023-05-01T23:07:14.395Z,1.70
2023-05-01T23:12:19.915Z,1.88
2023-05-01T23:17:22.043Z,2.03
2023-05-01T23:22:25.778Z,1.67
2023-05-01T23:27:28.189Z,1.58
2023-05-01T23:32:31.894Z,1.85
2023-05-01T23:37:35.330Z,1.67
2023-05-01T23:42:38.301Z,1.95
2023-05-01T23:47:40.695Z,1.30
2023-05-01T23:52:44.333Z,1.63
2023-05-01T23:57:46.425Z,1.75
